createdAt,value
2019-03-29T00:02:37.147Z,8.49
2019-03-29T00:05:41.909Z,8.36
2019-03-29T00:08:46.784Z,8.17
2019-03-29T00:11:50.895Z,8.17
2019-03-29T00:14:55.936Z,8.44
2019-03-29T00:18:01.157Z,8.31
2019-03-29T00:21:06.779Z,8.31
2019-03-29T00:24:11.071Z,8.35
2019-03-29T00:27:16.051Z,8.25
2019-03-29T00:30:21.975Z,8.30
2019-03-29T00:33:27.298Z,8.30
2019-03-29T00:36:32.822Z,8.23
2019-03-29T00:39:38.313Z,8.12
2019-03-29T00:42:43.144Z,8.18
2019-03-29T00:45:48.372Z,8.20
2019-03-29T00:48:53.956Z,8.17
2019-03-29T00:51:58.827Z,8.23
2019-03-29T00:55:03.888Z,8.26
2019-03-29T00:58:09.334Z,8.16
2019-03-29T01:01:15.361Z,8.16
2019-03-29T01:04:20.318Z,8.18
2019-03-29T01:07:25.285Z,8.03
2019-03-29T01:10:30.374Z,8.14
2019-03-29T01:13:36.270Z,8.00
2019-03-29T01:16:41.263Z,8.08
2019-03-29T01:19:46.126Z,7.88
2019-03-29T01:22:51.005Z,8.01
2019-03-29T01:25:56.382Z,8.02
2019-03-29T01:29:02.675Z,8.08
2019-03-29T01:32:07.493Z,8.08
2019-03-29T01:35:13.302Z,8.09
2019-03-29T01:38:22.321Z,8.15
2019-03-29T01:41:26.259Z,8.19
2019-03-29T01:44:32.317Z,8.19
2019-03-29T01:47:37.072Z,8.14
2019-03-29T01:50:41.789Z,8.20
2019-03-29T01:53:47.236Z,8.11
2019-03-29T01:56:52.556Z,8.11
2019-03-29T01:59:59.727Z,8.19
2019-03-29T02:03:03.851Z,8.18
2019-03-29T02:06:09.616Z,8.15
2019-03-29T02:09:14.494Z,8.15
2019-03-29T02:12:19.596Z,8.17
2019-03-29T02:15:24.902Z,8.15
2019-03-29T02:18:30.306Z,8.13
2019-03-29T02:21:35.837Z,8.13
2019-03-29T02:24:40.526Z,8.15
2019-03-29T02:27:45.602Z,8.15
2019-03-29T02:30:50.413Z,7.86
2019-03-29T02:33:55.284Z,7.59
2019-03-29T02:37:01.918Z,7.72
2019-03-29T02:40:08.042Z,7.97
2019-03-29T02:43:12.914Z,8.03
2019-03-29T02:46:17.887Z,8.11
2019-03-29T02:49:22.716Z,8.11
2019-03-29T02:52:27.612Z,8.07
2019-03-29T02:55:32.335Z,8.07
2019-03-29T02:58:37.258Z,8.13
2019-03-29T03:01:41.864Z,8.10
2019-03-29T03:04:46.688Z,7.96
2019-03-29T03:07:51.323Z,7.96
2019-03-29T03:10:56.268Z,8.00
2019-03-29T03:14:01.278Z,8.10
2019-03-29T03:17:05.930Z,8.09
2019-03-29T03:20:16.295Z,8.13
2019-03-29T03:23:21.377Z,8.13
2019-03-29T03:26:26.748Z,8.14
2019-03-29T03:29:31.038Z,8.12
2019-03-29T03:32:35.880Z,7.97
2019-03-29T03:35:40.804Z,8.06
2019-03-29T03:38:45.573Z,8.06
2019-03-29T03:41:50.307Z,7.86
2019-03-29T03:44:55.408Z,7.73
2019-03-29T03:48:00.187Z,7.88
2019-03-29T03:51:05.417Z,7.64
2019-03-29T03:54:10.287Z,7.71
2019-03-29T03:57:15.092Z,7.78
2019-03-29T04:00:23.339Z,7.52
2019-03-29T04:03:28.341Z,7.67
2019-03-29T04:06:33.794Z,7.80
2019-03-29T04:09:49.522Z,7.81
2019-03-29T04:12:46.368Z,7.57
2019-03-29T04:15:51.287Z,7.71
2019-03-29T04:18:56.530Z,7.44
2019-03-29T04:22:01.972Z,7.50
2019-03-29T04:25:07.841Z,7.50
2019-03-29T04:28:13.650Z,7.48
2019-03-29T04:31:18.473Z,7.48
2019-03-29T04:34:23.298Z,7.58
2019-03-29T04:37:27.923Z,7.41
2019-03-29T04:40:32.765Z,7.34
2019-03-29T04:43:36.992Z,7.34
2019-03-29T04:46:41.989Z,7.53
2019-03-29T04:49:47.279Z,7.29
2019-03-29T04:52:52.285Z,7.37
2019-03-29T04:55:57.101Z,7.31
2019-03-29T04:59:02.277Z,7.33
2019-03-29T05:02:07.220Z,7.23
2019-03-29T05:05:12.457Z,7.18
2019-03-29T05:08:17.307Z,7.16
2019-03-29T05:11:22.297Z,7.13
2019-03-29T05:14:27.279Z,7.06
2019-03-29T05:17:31.782Z,7.09
2019-03-29T05:20:36.584Z,7.10
2019-03-29T05:23:41.524Z,7.09
2019-03-29T05:26:46.344Z,6.93
2019-03-29T05:29:51.334Z,6.84
2019-03-29T05:32:56.308Z,6.69
2019-03-29T05:36:01.204Z,6.58
2019-03-29T05:39:08.144Z,6.51
2019-03-29T05:42:12.852Z,6.44
2019-03-29T05:45:17.939Z,6.18
2019-03-29T05:48:22.606Z,6.18
2019-03-29T05:51:27.492Z,6.17
2019-03-29T05:54:34.344Z,6.20
2019-03-29T05:57:39.284Z,6.20
2019-03-29T06:00:44.278Z,6.23
2019-03-29T06:03:48.943Z,6.22
2019-03-29T06:06:53.579Z,6.21
2019-03-29T06:09:58.384Z,6.26
2019-03-29T06:13:03.289Z,6.49
2019-03-29T06:16:08.072Z,6.78
2019-03-29T06:19:13.280Z,6.94
2019-03-29T06:22:18.284Z,7.31
2019-03-29T06:25:23.227Z,7.40
2019-03-29T06:28:29.991Z,7.74
2019-03-29T06:31:35.446Z,8.05
2019-03-29T06:34:40.722Z,8.35
2019-03-29T06:37:44.621Z,8.49
2019-03-29T06:41:02.047Z,8.81
2019-03-29T06:43:56.297Z,9.03
2019-03-29T06:47:01.513Z,8.79
2019-03-29T06:50:10.511Z,7.88
2019-03-29T06:53:15.312Z,8.25
2019-03-29T06:56:20.407Z,8.39
2019-03-29T06:59:25.591Z,8.26
2019-03-29T07:02:30.533Z,8.26
2019-03-29T07:05:35.289Z,9.01
2019-03-29T07:08:40.368Z,9.01
2019-03-29T07:11:45.502Z,9.27
2019-03-29T07:14:50.283Z,8.93
2019-03-29T07:17:56.762Z,8.97
2019-03-29T07:21:02.235Z,8.82
2019-03-29T07:24:07.256Z,9.18
2019-03-29T07:27:12.115Z,9.81
2019-03-29T07:30:17.352Z,9.85
2019-03-29T07:33:22.354Z,9.48
2019-03-29T07:36:27.707Z,9.55
2019-03-29T07:39:32.552Z,9.55
2019-03-29T07:42:37.268Z,9.93
2019-03-29T07:45:44.229Z,9.61
2019-03-29T07:48:49.430Z,9.62
2019-03-29T07:51:54.270Z,9.59
2019-03-29T07:54:59.243Z,9.62
2019-03-29T07:58:04.297Z,9.76
2019-03-29T08:01:09.753Z,9.80
2019-03-29T08:04:13.630Z,10.05
2019-03-29T08:07:27.035Z,10.25
2019-03-29T08:10:30.253Z,10.62
2019-03-29T08:13:32.295Z,10.92
2019-03-29T08:16:37.702Z,10.99
2019-03-29T08:19:42.315Z,11.36
2019-03-29T08:22:47.818Z,11.46
2019-03-29T08:25:54.973Z,10.34
2019-03-29T08:29:00.250Z,10.34
2019-03-29T08:32:05.388Z,10.36
2019-03-29T08:35:10.695Z,10.78
2019-03-29T08:38:14.986Z,10.85
2019-03-29T08:41:20.995Z,11.34
2019-03-29T08:44:26.019Z,11.32
2019-03-29T08:47:31.357Z,11.34
2019-03-29T08:50:36.257Z,11.36
2019-03-29T08:53:41.029Z,11.37
2019-03-29T08:56:46.313Z,11.99
2019-03-29T08:59:52.335Z,11.92
2019-03-29T09:02:57.250Z,12.05
2019-03-29T09:06:02.326Z,11.67
2019-03-29T09:09:11.791Z,12.20
2019-03-29T09:12:15.337Z,11.33
2019-03-29T09:15:20.446Z,12.19
2019-03-29T09:18:26.129Z,13.38
2019-03-29T09:21:31.367Z,12.29
2019-03-29T09:24:36.146Z,12.43
2019-03-29T09:27:41.330Z,12.47
2019-03-29T09:30:46.415Z,12.84
2019-03-29T09:33:52.429Z,13.29
2019-03-29T09:36:59.926Z,12.76
2019-03-29T09:40:04.669Z,13.06
2019-03-29T09:43:10.317Z,11.88
2019-03-29T09:46:15.491Z,11.90
2019-03-29T09:49:21.352Z,12.39
2019-03-29T09:52:26.118Z,11.97
2019-03-29T09:55:31.387Z,12.06
2019-03-29T09:58:36.284Z,12.83
2019-03-29T10:01:41.124Z,12.73
2019-03-29T10:04:46.070Z,12.88
2019-03-29T10:07:51.728Z,12.81
2019-03-29T10:10:56.492Z,12.96
2019-03-29T10:14:01.479Z,14.03
2019-03-29T10:17:07.050Z,13.87
2019-03-29T10:20:12.419Z,12.74
2019-03-29T10:23:17.272Z,13.41
2019-03-29T10:26:22.365Z,13.33
2019-03-29T10:29:30.437Z,13.28
2019-03-29T10:32:35.286Z,14.51
2019-03-29T10:35:51.414Z,13.34
2019-03-29T10:38:47.337Z,12.31
2019-03-29T10:41:52.391Z,12.63
2019-03-29T10:44:57.611Z,11.97
2019-03-29T10:48:02.807Z,12.42
2019-03-29T10:51:08.489Z,12.92
2019-03-29T10:54:13.977Z,13.02
2019-03-29T10:57:19.373Z,13.02
2019-03-29T11:00:39.126Z,13.85
2019-03-29T11:03:44.598Z,13.08
2019-03-29T11:06:50.034Z,13.30
2019-03-29T11:09:54.801Z,12.64
2019-03-29T11:13:11.782Z,14.81
2019-03-29T11:16:06.988Z,16.54
2019-03-29T11:19:11.897Z,16.54
2019-03-29T11:22:17.251Z,15.13
2019-03-29T11:25:22.318Z,15.45
2019-03-29T11:28:27.318Z,14.98
2019-03-29T11:31:33.332Z,13.85
2019-03-29T11:34:38.794Z,14.35
2019-03-29T11:37:43.471Z,15.14
2019-03-29T11:40:48.667Z,13.60
2019-03-29T11:43:56.515Z,13.35
2019-03-29T11:47:02.105Z,12.70
2019-03-29T11:50:08.308Z,12.85
2019-03-29T11:53:13.323Z,12.88
2019-03-29T11:56:18.295Z,13.82
2019-03-29T11:59:24.003Z,14.32
2019-03-29T12:02:31.539Z,14.66
2019-03-29T12:05:36.552Z,14.65
2019-03-29T12:08:43.304Z,14.73
2019-03-29T12:11:49.647Z,15.28
2019-03-29T12:14:54.324Z,13.78
2019-03-29T12:17:59.929Z,14.60
2019-03-29T12:21:04.905Z,14.69
2019-03-29T12:24:09.895Z,15.99
2019-03-29T12:27:15.345Z,15.69
2019-03-29T12:30:31.488Z,15.69
2019-03-29T12:33:28.317Z,16.19
2019-03-29T12:36:33.473Z,18.03
2019-03-29T12:39:38.760Z,18.35
2019-03-29T12:42:44.263Z,19.35
2019-03-29T12:45:50.561Z,18.41
2019-03-29T12:48:56.050Z,16.01
2019-03-29T12:52:01.746Z,17.00
2019-03-29T12:55:11.416Z,15.24
2019-03-29T12:58:16.337Z,15.72
2019-03-29T13:01:22.354Z,15.46
2019-03-29T13:04:27.621Z,14.85
2019-03-29T13:07:32.567Z,14.98
2019-03-29T13:10:37.294Z,16.23
2019-03-29T13:13:42.429Z,16.91
2019-03-29T13:16:47.454Z,15.92
2019-03-29T13:19:52.658Z,16.09
2019-03-29T13:22:57.211Z,16.30
2019-03-29T13:26:02.338Z,17.97
2019-03-29T13:29:07.841Z,16.02
2019-03-29T13:32:13.695Z,16.39
2019-03-29T13:35:19.512Z,16.39
2019-03-29T13:38:24.306Z,15.24
2019-03-29T13:41:31.632Z,16.78
2019-03-29T13:44:37.281Z,17.75
2019-03-29T13:47:42.772Z,18.10
2019-03-29T13:50:47.789Z,16.89
2019-03-29T13:53:52.935Z,16.99
2019-03-29T13:56:58.851Z,18.41
2019-03-29T14:00:06.103Z,16.96
2019-03-29T14:03:11.353Z,17.11
2019-03-29T14:06:17.012Z,16.64
2019-03-29T14:09:22.933Z,16.48
2019-03-29T14:12:28.639Z,15.99
2019-03-29T14:15:33.344Z,15.99
2019-03-29T14:18:38.366Z,16.85
2019-03-29T14:21:44.303Z,17.19
2019-03-29T14:24:49.363Z,16.98
2019-03-29T14:27:54.505Z,16.43
2019-03-29T14:30:59.393Z,16.71
2019-03-29T14:34:05.329Z,16.24
2019-03-29T14:37:10.756Z,15.79
2019-03-29T14:40:16.535Z,15.04
2019-03-29T14:43:22.962Z,15.94
2019-03-29T14:46:30.103Z,16.25
2019-03-29T14:49:35.476Z,16.21
2019-03-29T14:52:40.534Z,16.07
2019-03-29T14:55:45.691Z,15.34
2019-03-29T14:58:53.351Z,14.60
2019-03-29T15:02:02.475Z,15.14
2019-03-29T15:05:10.355Z,14.72
2019-03-29T15:08:19.599Z,14.88
2019-03-29T15:11:25.356Z,15.29
2019-03-29T15:14:34.370Z,15.29
2019-03-29T15:17:43.482Z,15.65
2019-03-29T15:20:53.823Z,16.05
2019-03-29T15:23:56.129Z,15.23
2019-03-29T15:27:03.323Z,15.71
2019-03-29T15:30:10.438Z,15.16
2019-03-29T15:33:15.533Z,15.43
2019-03-29T15:36:24.712Z,15.65
2019-03-29T15:39:29.280Z,15.98
2019-03-29T15:42:35.269Z,15.59
2019-03-29T15:45:44.728Z,16.30
2019-03-29T15:48:49.288Z,15.54
2019-03-29T15:51:54.840Z,15.87
2019-03-29T15:55:02.492Z,15.61
2019-03-29T15:58:09.027Z,15.61
2019-03-29T16:01:14.432Z,15.41
2019-03-29T16:04:23.167Z,15.49
2019-03-29T16:07:33.546Z,16.07
2019-03-29T16:10:40.955Z,15.45
2019-03-29T16:13:44.852Z,16.81
2019-03-29T16:16:49.747Z,15.68
2019-03-29T16:19:56.585Z,15.68
2019-03-29T16:23:03.282Z,16.28
2019-03-29T16:26:08.603Z,15.97
2019-03-29T16:29:14.227Z,15.73
2019-03-29T16:32:19.432Z,15.69
2019-03-29T16:35:25.564Z,16.14
2019-03-29T16:38:30.316Z,15.76
2019-03-29T16:41:35.775Z,15.06
2019-03-29T16:44:41.571Z,14.98
2019-03-29T16:47:46.508Z,14.53
2019-03-29T16:50:51.829Z,14.53
2019-03-29T16:53:58.751Z,13.79
2019-03-29T16:57:02.859Z,13.60
2019-03-29T17:00:14.507Z,12.93
2019-03-29T17:03:20.084Z,12.63
2019-03-29T17:06:25.264Z,12.56
2019-03-29T17:09:30.348Z,12.56
2019-03-29T17:12:35.546Z,12.35
2019-03-29T17:15:40.693Z,11.64
2019-03-29T17:18:45.318Z,11.47
2019-03-29T17:21:51.278Z,11.36
2019-03-29T17:24:57.478Z,11.13
2019-03-29T17:28:02.523Z,10.74
2019-03-29T17:31:09.954Z,10.58
2019-03-29T17:34:15.510Z,10.34
2019-03-29T17:37:23.376Z,10.06
2019-03-29T17:40:28.668Z,9.75
2019-03-29T17:43:33.715Z,9.51
2019-03-29T17:46:38.252Z,9.27
2019-03-29T17:49:43.760Z,9.05
2019-03-29T17:52:48.685Z,8.76
2019-03-29T17:55:53.431Z,8.54
2019-03-29T17:58:58.278Z,8.32
2019-03-29T18:02:09.150Z,8.10
2019-03-29T18:05:10.309Z,7.93
2019-03-29T18:08:15.318Z,7.66
2019-03-29T18:11:20.983Z,7.54
2019-03-29T18:14:28.378Z,7.30
2019-03-29T18:17:34.692Z,7.06
2019-03-29T18:20:39.391Z,6.92
2019-03-29T18:23:44.364Z,6.81
2019-03-29T18:26:49.278Z,6.66
2019-03-29T18:29:54.309Z,6.49
2019-03-29T18:32:59.342Z,6.32
2019-03-29T18:36:06.788Z,6.19
2019-03-29T18:39:11.954Z,6.08
2019-03-29T18:42:19.402Z,5.84
2019-03-29T18:45:24.304Z,5.84
2019-03-29T18:48:29.416Z,5.68
2019-03-29T18:51:35.945Z,5.58
2019-03-29T18:54:40.909Z,5.45
2019-03-29T18:57:46.045Z,5.34
2019-03-29T19:00:52.046Z,5.27
2019-03-29T19:03:57.550Z,5.19
2019-03-29T19:07:02.656Z,5.09
2019-03-29T19:10:08.943Z,4.99
2019-03-29T19:13:17.272Z,4.87
2019-03-29T19:16:22.566Z,4.75
2019-03-29T19:19:29.423Z,4.65
2019-03-29T19:22:34.867Z,4.54
2019-03-29T19:25:41.360Z,4.32
2019-03-29T19:28:48.615Z,4.32
2019-03-29T19:31:56.231Z,4.28
2019-03-29T19:35:01.714Z,4.21
2019-03-29T19:38:06.092Z,4.11
2019-03-29T19:41:11.418Z,3.99
2019-03-29T19:44:17.323Z,3.89
2019-03-29T19:47:25.367Z,3.79
2019-03-29T19:50:30.296Z,3.74
2019-03-29T19:53:36.441Z,3.68
2019-03-29T19:56:43.755Z,3.62
2019-03-29T19:59:49.292Z,3.47
2019-03-29T20:02:54.300Z,3.45
2019-03-29T20:06:03.545Z,3.40
2019-03-29T20:09:10.560Z,3.19
2019-03-29T20:12:16.379Z,3.19
2019-03-29T20:15:21.448Z,3.08
2019-03-29T20:18:28.067Z,3.03
2019-03-29T20:21:38.952Z,2.90
2019-03-29T20:24:45.697Z,2.73
2019-03-29T20:27:50.866Z,2.73
2019-03-29T20:30:56.307Z,2.65
2019-03-29T20:34:01.719Z,2.65
2019-03-29T20:37:08.859Z,2.56
2019-03-29T20:40:13.367Z,2.33
2019-03-29T20:43:18.503Z,2.33
2019-03-29T20:46:23.615Z,2.32
2019-03-29T20:49:28.763Z,2.32
2019-03-29T20:52:35.204Z,2.21
2019-03-29T20:55:40.067Z,2.17
2019-03-29T20:58:45.255Z,2.14
2019-03-29T21:01:52.737Z,2.05
2019-03-29T21:04:56.806Z,1.98
2019-03-29T21:08:01.611Z,1.94
2019-03-29T21:11:06.421Z,1.85
2019-03-29T21:14:11.924Z,1.83
2019-03-29T21:17:18.815Z,1.73
2019-03-29T21:20:24.693Z,1.56
2019-03-29T21:23:29.600Z,1.56
2019-03-29T21:26:36.989Z,1.61
2019-03-29T21:29:44.043Z,1.58
2019-03-29T21:32:49.343Z,1.49
2019-03-29T21:35:54.273Z,1.47
2019-03-29T21:38:59.486Z,1.55
2019-03-29T21:42:06.531Z,1.51
2019-03-29T21:45:11.509Z,1.48
2019-03-29T21:48:28.646Z,1.41
2019-03-29T21:51:26.370Z,1.41
2019-03-29T21:54:31.468Z,1.28
2019-03-29T21:57:36.670Z,1.26
2019-03-29T22:00:41.654Z,1.25
2019-03-29T22:03:46.546Z,1.12
2019-03-29T22:06:51.763Z,1.06
2019-03-29T22:09:58.076Z,1.03
2019-03-29T22:13:07.348Z,0.96
2019-03-29T22:16:14.434Z,0.91
2019-03-29T22:19:24.298Z,0.83
2019-03-29T22:22:30.369Z,0.81
2019-03-29T22:25:35.712Z,0.79
2019-03-29T22:28:40.074Z,0.71
2019-03-29T22:31:45.939Z,0.72
2019-03-29T22:34:51.282Z,0.63
2019-03-29T22:37:56.591Z,0.63
2019-03-29T22:41:03.443Z,0.60
2019-03-29T22:44:09.338Z,0.52
2019-03-29T22:47:14.284Z,0.48
2019-03-29T22:50:19.657Z,0.47
2019-03-29T22:53:24.963Z,0.43
2019-03-29T22:56:29.644Z,0.39
2019-03-29T22:59:35.335Z,0.31
2019-03-29T23:02:40.692Z,0.26
2019-03-29T23:05:44.860Z,0.24
2019-03-29T23:08:50.329Z,0.00
2019-03-29T23:11:55.548Z,0.00
2019-03-29T23:15:00.603Z,0.02
2019-03-29T23:18:05.814Z,-0.08
2019-03-29T23:21:11.415Z,-0.07
2019-03-29T23:24:17.240Z,-0.09
2019-03-29T23:27:22.870Z,-0.13
2019-03-29T23:30:27.644Z,-0.39
2019-03-29T23:33:32.938Z,-0.39
2019-03-29T23:36:38.753Z,-0.30
2019-03-29T23:39:43.123Z,-0.25
2019-03-29T23:42:47.919Z,-0.36
2019-03-29T23:45:53.328Z,-0.42
2019-03-29T23:48:58.612Z,-0.42
2019-03-29T23:52:03.710Z,-0.47
2019-03-29T23:55:08.859Z,-0.50
2019-03-29T23:58:13.698Z,-0.56
